Lamartine, PA (16375)

3:32 AM EST on January 30, 2015 (GMT -0500)
Kennerdell | Change Station
CLOSE
Current Station
Personal Weather Station
Location: Kennerdell, PA
Elevation: 925 ft
Nearby Weather Stations
Active Advisory: Winter Weather Advisory Active Notice: Public Information Statement

Elev 925 ft 41.27 °N, 79.81 °W | Updated 6 seconds ago

Snow
Snow
27.1 °F
Feels Like 20 °F
N
7.1
Wind Variable Wind from SW
Gusts 12.9 mph

Today
High -- | Low -- °F
--% Chance of Precip.
Yesterday
High -- | Low -- °F
Precip. -- in
7:31 AM 5:32 PM
Waxing Gibbous, 81% visible
Pressure 29.95 in
Visibility 4.0 miles
Clouds Mostly Cloudy 1000 ft
Overcast 1500 ft
Windchill 20 °F
Dew Point 25 °F
Humidity 90%
Rainfall 0.00 in
Snow Depth Not available.
UV 0 out of 12
Pollen .10 out of 12
Air Quality Not available.
Flu Activity Not available.
METAR KFKL 300815Z AUTO 30008G16KT 4SM BKN010 OVC015 M02/M05 A2995 RMK AO1

More Conditions Fewer Conditions

Pressure 29.95 in
Visibility 4.0 miles
Clouds Mostly Cloudy 1000 ft
Overcast 1500 ft
Windchill 20 °F
Dew Point 25 °F
Humidity 90%
Rainfall 0.00 in
Snow Depth Not available.
UV 0 out of 12
Pollen .10 out of 12
Air Quality Not available.
Flu Activity Not available.
METAR KFKL 300815Z AUTO 30008G16KT 4SM BKN010 OVC015 M02/M05 A2995 RMK AO1

More Conditions Fewer Conditions

10-Day Weather Forecast

Almanac

Astronomy

Jan. 30, 2015 Rise Set
Actual Time
Civil Twilight
Nautical Twilight
Astronomical Twilight
Moon
Length of Visible Light
Length of Day
Tomorrow will be .
, % of the Moon is Illuminated

Today's Extremes

State Highs State Lows

Community

WunderPhotos

Upload Photos

1,791,730 photos uploaded!

WunderBlogs® & News

Nearby

Air Quality

  Air Quality AQ Index Pollutant
Not available.

Snow Depth

Station Depth Elevation

Earthquake Activity

City Distance Mag. Time & Date
Minimum magnitude displayed is 2.5.

Coastal Water Temperatures

Place Temperature

Nearby Weather Stations